Time;durP1;ratioP1;P1;durP2;ratioP2;P2;SDS_P1;SDS_P2;PMS_P1;PMS_P2;Temp;Humidity;BMP_temperature;BMP_pressure;BME280_temperature;BME280_humidity;BME280_pressure;Samples;Min_cycle;Max_cycle;Signal;HPM_P1;HPM_P2
2021/05/10 00:01:53;;;;;;;3.78;2.30;;;;;;;15.45;95.03;99495.81;5234718;28;20081;-80
2021/05/10 00:04:23;;;;;;;2.60;1.90;;;;;;;15.54;93.69;99497.75;5222028;28;20040;-80
2021/05/10 00:06:53;;;;;;;3.33;2.08;;;;;;;15.54;93.65;99495.13;5218465;28;20031;-80
2021/05/10 00:09:24;;;;;;;4.35;2.25;;;;;;;15.60;93.14;99494.69;5222819;28;20037;-80
2021/05/10 00:11:54;;;;;;;6.78;1.77;;;;;;;15.72;92.15;99487.69;5224176;28;20032;-80
2021/05/10 00:14:39;;;;;;;4.95;1.90;;;;;;;15.96;90.36;99494.59;5227295;28;20044;-80
2021/05/10 00:17:10;;;;;;;5.25;1.75;;;;;;;15.79;91.54;99492.38;5228235;28;20071;-80
2021/05/10 00:19:40;;;;;;;4.40;1.80;;;;;;;15.83;91.31;99498.25;5233750;28;20037;-80
2021/05/10 00:22:10;;;;;;;3.78;2.00;;;;;;;15.77;91.64;99491.66;5232383;28;20662;-80
2021/05/10 00:24:41;;;;;;;4.57;2.13;;;;;;;15.81;90.99;99490.47;5218300;28;20494;-80
2021/05/10 00:27:11;;;;;;;5.05;1.90;;;;;;;15.73;91.79;99490.19;5216844;28;20111;-81
2021/05/10 00:29:41;;;;;;;4.03;2.07;;;;;;;15.71;91.85;99497.34;5215946;28;20028;-80
2021/05/10 00:32:12;;;;;;;5.40;1.75;;;;;;;15.77;91.25;99486.41;5233633;28;20302;-80
2021/05/10 00:34:42;;;;;;;6.00;2.20;;;;;;;15.62;92.67;99478.75;5230648;28;20036;-80
2021/05/10 00:37:12;;;;;;;2.47;1.80;;;;;;;15.65;92.34;99481.16;5234488;28;20051;-80
2021/05/10 00:39:42;;;;;;;4.57;1.73;;;;;;;15.59;93.34;99479.00;5233045;28;20270;-80
2021/05/10 00:42:13;;;;;;;3.58;1.80;;;;;;;15.51;93.46;99476.09;5235179;28;20331;-80
2021/05/10 00:44:43;;;;;;;3.97;1.90;;;;;;;15.51;93.50;99479.53;5234010;28;20043;-80
2021/05/10 00:47:13;;;;;;;4.28;1.88;;;;;;;15.32;94.40;99467.84;5227765;28;20440;-80
2021/05/10 00:49:43;;;;;;;4.30;2.25;;;;;;;15.23;95.47;99474.59;5228687;28;20032;-80
2021/05/10 00:52:14;;;;;;;4.60;2.10;;;;;;;14.99;97.16;99473.69;5234817;28;20046;-80
2021/05/10 00:54:44;;;;;;;4.28;2.08;;;;;;;14.96;97.19;99471.28;5215794;28;20288;-80
2021/05/10 00:57:15;;;;;;;3.03;2.00;;;;;;;15.05;96.13;99470.59;5234788;28;20032;-80
2021/05/10 00:59:48;;;;;;;6.05;2.00;;;;;;;15.16;95.35;99465.44;5226323;28;20025;-80
2021/05/10 01:02:19;;;;;;;7.13;2.15;;;;;;;15.12;95.33;99469.25;5226742;28;20025;-81
2021/05/10 01:04:50;;;;;;;6.68;2.20;;;;;;;15.09;95.62;99466.84;5236979;28;20394;-81
2021/05/10 01:07:20;;;;;;;3.58;2.00;;;;;;;14.86;97.16;99469.41;5233695;28;20033;-80
2021/05/10 01:09:50;;;;;;;3.72;2.13;;;;;;;14.81;97.11;99463.63;5237811;28;20036;-81
2021/05/10 01:12:21;;;;;;;3.17;2.10;;;;;;;14.79;97.42;99470.75;5234255;28;20060;-80
2021/05/10 01:14:51;;;;;;;3.17;1.90;;;;;;;14.74;97.50;99475.50;5238085;28;20052;-80
2021/05/10 01:17:22;;;;;;;4.60;2.10;;;;;;;14.66;98.10;99485.75;5230156;28;20017;-80
2021/05/10 01:19:52;;;;;;;3.33;1.90;;;;;;;14.74;97.74;99479.97;5225434;28;20041;-80
2021/05/10 01:22:22;;;;;;;4.32;2.03;;;;;;;14.75;97.47;99482.47;5229623;28;20060;-80
2021/05/10 01:24:53;;;;;;;5.85;2.45;;;;;;;14.85;96.93;99483.50;5238496;28;20409;-80
2021/05/10 01:27:23;;;;;;;3.42;2.13;;;;;;;14.79;97.10;99488.34;5234021;28;20029;-80
2021/05/10 01:29:53;;;;;;;4.90;2.05;;;;;;;14.81;97.46;99489.09;5210005;28;20112;-80
2021/05/10 01:32:24;;;;;;;3.28;2.22;;;;;;;14.67;97.97;99486.56;5227789;28;20116;-80
2021/05/10 01:34:54;;;;;;;3.72;2.25;;;;;;;14.70;97.89;99481.09;5237300;28;20039;-80
2021/05/10 01:37:25;;;;;;;6.97;2.17;;;;;;;14.70;97.64;99484.56;5233656;28;20671;-80
2021/05/10 01:39:55;;;;;;;3.60;2.30;;;;;;;14.73;97.33;99484.34;5236612;28;20082;-80
2021/05/10 01:42:26;;;;;;;4.22;1.95;;;;;;;14.77;97.17;99491.06;5233876;28;20029;-78
2021/05/10 01:44:56;;;;;;;3.47;1.98;;;;;;;14.89;96.01;99484.97;5238114;28;20651;-78
2021/05/10 01:47:27;;;;;;;5.00;2.13;;;;;;;14.93;95.33;99489.06;5225627;28;20079;-78
2021/05/10 01:49:57;;;;;;;3.03;1.98;;;;;;;14.97;94.93;99491.38;5262980;22;20044;-78
2021/05/10 01:52:27;;;;;;;5.20;2.05;;;;;;;14.99;94.77;99489.47;5235620;28;20094;-78
2021/05/10 01:54:57;;;;;;;3.75;1.90;;;;;;;15.01;94.20;99487.56;5235664;28;20426;-78
2021/05/10 01:57:28;;;;;;;3.35;2.03;;;;;;;15.02;94.20;99485.78;5235509;28;20021;-79
2021/05/10 01:59:58;;;;;;;4.93;1.90;;;;;;;14.98;94.34;99490.44;5236133;28;20038;-79
2021/05/10 02:02:28;;;;;;;3.53;1.90;;;;;;;14.93;94.86;99492.53;5253289;28;20233;-78
2021/05/10 02:05:10;;;;;;;5.35;1.77;;;;;;;15.08;93.06;99495.88;5235611;28;20040;-79
2021/05/10 02:07:49;;;;;;;3.40;1.90;;;;;;;15.22;93.05;99490.47;5235749;28;20025;-79
2021/05/10 02:10:32;;;;;;;4.28;2.00;;;;;;;15.24;93.07;99492.06;5235955;28;20036;-78
2021/05/10 02:13:06;;;;;;;3.70;1.80;;;;;;;15.17;93.91;99498.69;5266029;28;20336;-79
2021/05/10 02:15:41;;;;;;;4.63;2.10;;;;;;;15.10;94.42;99494.81;5234308;28;20032;-78
2021/05/10 02:18:14;;;;;;;3.72;2.00;;;;;;;14.90;95.77;99500.66;5253188;28;20024;-79
2021/05/10 02:20:46;;;;;;;3.40;2.17;;;;;;;14.92;95.21;99493.50;5253238;28;20043;-78
2021/05/10 02:23:18;;;;;;;3.38;2.10;;;;;;;14.87;95.95;99492.97;5253752;28;20035;-78
2021/05/10 02:25:51;;;;;;;5.20;2.05;;;;;;;14.83;95.89;99488.88;5235976;28;20032;-79
2021/05/10 02:28:24;;;;;;;3.13;1.80;;;;;;;14.85;95.64;99491.41;5252837;28;20029;-79
2021/05/10 02:30:57;;;;;;;5.50;2.03;;;;;;;14.82;95.72;99495.06;5230494;28;20100;-78
2021/05/10 02:33:30;;;;;;;4.97;2.22;;;;;;;14.83;95.36;99493.31;5235321;28;20024;-79
2021/05/10 02:36:00;;;;;;;2.97;1.90;;;;;;;14.87;95.31;99498.22;5252376;28;20583;-79
2021/05/10 02:38:31;;;;;;;4.68;2.00;;;;;;;14.90;94.82;99498.03;5235788;28;20103;-78
2021/05/10 02:41:01;;;;;;;3.83;1.92;;;;;;;14.89;95.07;99498.97;5250107;28;20392;-77
2021/05/10 02:43:31;;;;;;;5.55;2.05;;;;;;;14.93;95.27;99499.59;5233759;28;20029;-79
2021/05/10 02:46:02;;;;;;;4.88;2.00;;;;;;;15.00;94.21;99504.31;5250558;28;20052;-78
2021/05/10 02:48:32;;;;;;;3.97;2.00;;;;;;;15.04;93.84;99500.50;5232347;28;20032;-79
2021/05/10 02:51:02;;;;;;;4.03;2.00;;;;;;;15.08;93.57;99503.78;5246987;28;20470;-80
2021/05/10 02:53:33;;;;;;;5.32;2.10;;;;;;;15.15;93.07;99508.50;5230428;28;20027;-80
2021/05/10 02:56:03;;;;;;;4.20;2.00;;;;;;;15.16;93.21;99501.44;5247171;28;20413;-80
2021/05/10 02:58:33;;;;;;;3.47;2.03;;;;;;;15.13;93.02;99505.13;5229166;28;20274;-79
2021/05/10 03:01:04;;;;;;;4.43;2.10;;;;;;;15.18;92.58;99503.00;5247100;28;20028;-78
2021/05/10 03:03:34;;;;;;;4.22;1.85;;;;;;;15.19;92.92;99503.88;5229648;28;20020;-79
2021/05/10 03:06:04;;;;;;;3.25;2.00;;;;;;;15.27;91.50;99502.38;5229225;28;20075;-79
2021/05/10 03:08:34;;;;;;;3.30;1.80;;;;;;;15.15;92.70;99505.88;5229441;28;20063;-80
2021/05/10 03:11:05;;;;;;;4.97;2.03;;;;;;;15.11;93.19;99496.50;5246927;28;20025;-78
2021/05/10 03:13:35;;;;;;;3.80;1.90;;;;;;;15.00;93.87;99499.03;5247159;28;20757;-79
2021/05/10 03:16:05;;;;;;;4.75;2.10;;;;;;;14.88;94.93;99492.00;5246649;28;20111;-79
2021/05/10 03:18:36;;;;;;;3.80;1.90;;;;;;;14.91;95.02;99496.22;5229841;28;20196;-79
2021/05/10 03:21:06;;;;;;;3.00;1.60;;;;;;;14.93;94.71;99505.69;5228462;28;20036;-80
2021/05/10 03:23:37;;;;;;;4.63;1.90;;;;;;;14.91;94.43;99506.75;5247178;28;20259;-78
2021/05/10 03:26:07;;;;;;;4.57;2.10;;;;;;;14.84;95.15;99508.97;5228982;28;20117;-79
2021/05/10 03:28:37;;;;;;;4.90;1.88;;;;;;;14.87;94.22;99508.75;5247209;28;20020;-80
2021/05/10 03:31:08;;;;;;;4.53;2.05;;;;;;;15.01;93.40;99505.16;5245919;28;20036;-80
2021/05/10 03:33:38;;;;;;;5.18;2.03;;;;;;;14.97;93.49;99508.94;5246927;28;20024;-80
2021/05/10 03:36:08;;;;;;;5.55;2.00;;;;;;;14.95;93.81;99501.16;5229212;28;20136;-80
2021/05/10 03:38:39;;;;;;;3.53;2.17;;;;;;;14.92;93.99;99498.75;5229726;28;20021;-78
2021/05/10 03:41:09;;;;;;;3.20;2.00;;;;;;;14.88;94.32;99499.91;5247611;28;20043;-79
2021/05/10 03:43:39;;;;;;;5.05;1.98;;;;;;;14.77;95.59;99501.59;5248689;28;20054;-78
2021/05/10 03:46:10;;;;;;;3.50;2.05;;;;;;;14.77;95.40;99500.78;5229435;28;20504;-78
2021/05/10 03:48:41;;;;;;;5.15;1.80;;;;;;;14.77;95.10;99506.03;5228746;28;20389;-80
2021/05/10 03:51:11;;;;;;;3.17;1.60;;;;;;;14.83;94.44;99501.19;5246658;28;20043;-78
2021/05/10 03:53:42;;;;;;;4.88;1.70;;;;;;;14.77;95.14;99504.22;5247250;28;20513;-79
2021/05/10 03:56:13;;;;;;;2.72;1.98;;;;;;;14.74;96.11;99511.53;5222479;28;20035;-78
2021/05/10 03:58:43;;;;;;;2.60;1.85;;;;;;;14.66;95.91;99503.28;5243177;28;20582;-79
2021/05/10 04:01:13;;;;;;;3.30;1.90;;;;;;;14.74;95.68;99506.25;5246909;28;20028;-80
2021/05/10 04:03:50;;;;;;;5.00;2.10;;;;;;;14.80;95.89;99498.75;5247098;28;20043;-79
2021/05/10 04:06:42;;;;;;;4.53;1.98;;;;;;;14.95;94.23;99503.81;5246098;28;20063;-80
2021/05/10 04:14:29;;;;;;;4.50;2.08;;;;;;;15.28;93.99;99496.16;5246630;28;20481;-80
2021/05/10 04:16:59;;;;;;;3.45;1.92;;;;;;;15.47;95.07;99493.03;5247355;28;20024;-80
2021/05/10 04:19:29;;;;;;;2.72;1.90;;;;;;;15.75;93.19;99493.56;5229148;28;20109;-80
2021/05/10 04:22:00;;;;;;;3.72;1.95;;;;;;;15.88;92.87;99499.59;5228691;28;20039;-80
2021/05/10 04:24:30;;;;;;;2.45;1.63;;;;;;;16.08;91.76;99485.75;5246326;28;20029;-79
2021/05/10 04:27:04;;;;;;;3.90;1.90;;;;;;;16.26;91.42;99494.09;5228921;28;20052;-79
2021/05/10 04:29:34;;;;;;;3.97;1.90;;;;;;;16.27;92.32;99491.34;5228801;28;20031;-79
2021/05/10 04:32:05;;;;;;;3.03;1.75;;;;;;;16.31;92.56;99491.94;5228760;28;20025;-80
2021/05/10 04:34:35;;;;;;;4.45;1.80;;;;;;;16.44;93.42;99488.31;5246806;28;20024;-78
2021/05/10 04:37:05;;;;;;;3.00;1.80;;;;;;;16.43;92.92;99491.03;5245214;28;20107;-80
2021/05/10 04:39:36;;;;;;;3.47;2.10;;;;;;;16.60;91.44;99487.94;5228156;28;20020;-79
2021/05/10 04:42:06;;;;;;;4.68;2.30;;;;;;;16.63;91.78;99485.06;5228290;28;20105;-78
2021/05/10 04:44:36;;;;;;;4.38;2.08;;;;;;;17.06;90.28;99484.22;5248698;28;20032;-79
2021/05/10 04:47:07;;;;;;;3.92;2.00;;;;;;;17.47;86.18;99476.53;5231132;28;20036;-79
2021/05/10 04:49:37;;;;;;;5.65;2.20;;;;;;;17.06;88.92;99487.72;5248499;28;20069;-79
2021/05/10 04:52:07;;;;;;;5.37;1.97;;;;;;;17.27;89.06;99485.16;5248894;28;20520;-79
2021/05/10 04:54:38;;;;;;;4.43;2.30;;;;;;;16.90;91.09;99474.06;5231066;28;20300;-80
2021/05/10 04:57:08;;;;;;;2.72;2.10;;;;;;;16.68;93.59;99478.50;5231184;28;20084;-79
2021/05/10 04:59:38;;;;;;;5.43;2.30;;;;;;;16.68;93.71;99489.03;5229978;28;20025;-79
2021/05/10 05:02:08;;;;;;;6.17;2.60;;;;;;;16.53;94.32;99486.75;5246917;28;20282;-79
2021/05/10 05:04:39;;;;;;;5.07;2.40;;;;;;;16.37;95.41;99489.72;5229357;28;20927;-79
2021/05/10 05:07:09;;;;;;;6.87;2.50;;;;;;;16.39;94.71;99493.06;5248831;28;20711;-79
2021/05/10 05:09:39;;;;;;;4.22;2.30;;;;;;;16.41;95.77;99482.41;5248864;28;20301;-79
2021/05/10 05:12:10;;;;;;;4.75;2.47;;;;;;;16.59;95.08;99487.09;5230654;28;20074;-79
2021/05/10 05:14:40;;;;;;;6.75;2.53;;;;;;;16.69;94.66;99482.81;5247331;28;20098;-79
2021/05/10 05:17:10;;;;;;;4.85;2.70;;;;;;;16.70;95.03;99479.22;5246436;28;20027;-79
2021/05/10 05:19:41;;;;;;;4.68;2.30;;;;;;;16.92;94.62;99468.63;5247024;28;20401;-79
2021/05/10 05:22:12;;;;;;;3.92;2.25;;;;;;;17.08;93.42;99463.81;5246259;28;20032;-79
2021/05/10 05:24:42;;;;;;;5.88;2.80;;;;;;;16.98;95.86;99462.91;5246966;28;20113;-79
2021/05/10 05:27:12;;;;;;;5.78;2.67;;;;;;;16.92;96.91;99463.34;5246491;28;20111;-80
2021/05/10 05:29:43;;;;;;;6.15;2.85;;;;;;;17.11;96.44;99461.78;5228658;28;20047;-80
2021/05/10 05:32:13;;;;;;;4.55;2.80;;;;;;;17.16;97.11;99449.06;5239671;28;20083;-79
2021/05/10 05:34:43;;;;;;;4.65;2.55;;;;;;;17.01;99.80;99452.91;5250551;28;20111;-79
2021/05/10 05:37:14;;;;;;;6.38;2.90;;;;;;;17.02;99.82;99453.75;5228067;28;20383;-79
2021/05/10 05:39:44;;;;;;;5.10;2.65;;;;;;;17.21;99.67;99448.69;5228263;28;20028;-80
2021/05/10 05:42:15;;;;;;;5.38;2.75;;;;;;;17.24;100.00;99448.44;5244356;28;20107;-79
2021/05/10 05:44:49;;;;;;;6.07;2.60;;;;;;;17.22;99.98;99450.38;5246546;28;20039;-79
2021/05/10 05:47:28;;;;;;;4.72;2.47;;;;;;;17.34;99.27;99454.69;5246385;28;20033;-80
2021/05/10 05:49:58;;;;;;;3.83;2.30;;;;;;;17.36;99.69;99447.47;5242814;28;20024;-79
2021/05/10 05:52:29;;;;;;;7.55;2.70;;;;;;;17.36;99.94;99444.84;5228237;28;20101;-79
2021/05/10 05:54:59;;;;;;;4.00;2.75;;;;;;;17.81;96.16;99426.06;5229000;28;20028;-79
2021/05/10 05:57:29;;;;;;;5.82;2.40;;;;;;;17.98;96.01;99420.19;5247510;28;20044;-79
2021/05/10 06:00:02;;;;;;;3.83;2.20;;;;;;;18.56;93.89;99424.03;5246530;28;20064;-80
2021/05/10 06:02:32;;;;;;;2.13;1.88;;;;;;;18.76;92.47;99418.72;5262413;28;20427;-80
2021/05/10 06:05:04;;;;;;;5.32;2.38;;;;;;;19.24;89.60;99422.38;5249099;28;20088;-80
2021/05/10 06:07:40;;;;;;;3.63;2.00;;;;;;;19.61;88.31;99413.59;5246660;28;20036;-80
2021/05/10 06:10:14;;;;;;;3.30;2.30;;;;;;;19.80;87.54;99416.25;5229437;28;20074;-80
2021/05/10 06:12:48;;;;;;;4.03;2.28;;;;;;;19.64;90.52;99405.34;5246993;28;20123;-80
2021/05/10 06:15:20;;;;;;;4.25;2.05;;;;;;;20.00;89.26;99420.56;5247642;28;20028;-80
2021/05/10 06:17:50;;;;;;;4.95;2.25;;;;;;;19.94;89.45;99434.38;5231518;28;20115;-80
2021/05/10 06:20:23;;;;;;;5.40;2.42;;;;;;;20.11;89.46;99431.06;5248299;28;20166;-80
2021/05/10 06:22:54;;;;;;;4.30;2.28;;;;;;;19.60;90.88;99430.47;5231610;28;20115;-80
2021/05/10 06:25:25;;;;;;;4.47;2.33;;;;;;;19.26;92.68;99444.25;5232745;28;20115;-80
2021/05/10 06:27:56;;;;;;;4.47;2.47;;;;;;;18.99;93.97;99439.56;5229785;28;20021;-79
2021/05/10 06:30:27;;;;;;;7.07;3.00;;;;;;;19.24;90.67;99444.38;5246340;28;20609;-79
2021/05/10 06:32:57;;;;;;;5.23;2.63;;;;;;;19.72;87.64;99441.78;5227688;28;20162;-80
2021/05/10 06:35:27;;;;;;;5.22;3.10;;;;;;;20.83;83.64;99443.59;5245758;28;20815;-79
2021/05/10 06:37:58;;;;;;;4.13;2.90;;;;;;;21.14;83.53;99436.16;5223715;28;20025;-79
2021/05/10 06:40:29;;;;;;;7.72;2.90;;;;;;;20.47;84.75;99440.06;5223272;28;20108;-80
2021/05/10 06:42:59;;;;;;;7.15;3.13;;;;;;;20.47;84.17;99440.88;5227074;28;20036;-80
2021/05/10 06:45:29;;;;;;;4.80;3.00;;;;;;;20.11;86.86;99454.94;5262677;28;20020;-79
2021/05/10 06:48:00;;;;;;;4.73;3.07;;;;;;;19.58;89.36;99458.94;5228673;28;20036;-79
2021/05/10 06:50:30;;;;;;;6.97;3.10;;;;;;;19.37;90.09;99462.66;5228836;28;20310;-79
2021/05/10 06:53:00;;;;;;;4.97;3.40;;;;;;;19.27;88.97;99456.53;5247214;28;20032;-79
2021/05/10 06:55:35;;;;;;;9.13;3.55;;;;;;;19.17;89.78;99461.81;5246501;28;20084;-79
2021/05/10 06:58:10;;;;;;;9.93;3.23;;;;;;;19.11;91.71;99472.88;5229411;28;20486;-79
2021/05/10 07:00:40;;;;;;;5.80;3.38;;;;;;;19.69;89.15;99471.22;5228997;28;20111;-79
2021/05/10 07:03:11;;;;;;;7.00;3.30;;;;;;;20.51;85.75;99458.19;5247452;28;20532;-79
2021/05/10 07:05:43;;;;;;;6.05;3.05;;;;;;;20.66;84.19;99456.75;5228564;28;20021;-79
2021/05/10 07:08:15;;;;;;;4.93;2.85;;;;;;;20.54;84.10;99457.06;5246984;28;20028;-80
2021/05/10 07:10:51;;;;;;;5.30;2.88;;;;;;;20.48;85.95;99453.19;5227326;28;20124;-79
2021/05/10 07:13:22;;;;;;;5.97;2.83;;;;;;;20.93;86.05;99446.22;5229668;28;20036;-79
2021/05/10 07:15:52;;;;;;;5.10;3.00;;;;;;;21.29;84.81;99447.97;5229897;28;20016;-79
2021/05/10 07:18:22;;;;;;;5.57;2.60;;;;;;;22.22;80.82;99441.25;5229262;28;20359;-79
2021/05/10 07:20:53;;;;;;;5.13;2.50;;;;;;;23.39;76.60;99451.09;5228841;28;20082;-80
2021/05/10 07:23:23;;;;;;;4.82;2.20;;;;;;;24.33;71.44;99438.00;5247681;28;20025;-80
2021/05/10 07:25:54;;;;;;;3.83;1.80;;;;;;;25.91;64.22;99432.22;5229040;28;20032;-80
2021/05/10 07:28:24;;;;;;;4.85;1.70;;;;;;;25.97;60.65;99434.19;5247081;28;20025;-80
2021/05/10 07:30:54;;;;;;;5.97;1.77;;;;;;;27.14;64.61;99436.88;5227890;28;20094;-80
2021/05/10 07:33:25;;;;;;;5.13;1.80;;;;;;;27.55;62.23;99440.69;5247493;28;20267;-81
2021/05/10 07:35:55;;;;;;;6.75;1.95;;;;;;;27.56;62.48;99447.72;5229743;28;20025;-81
2021/05/10 07:38:25;;;;;;;5.93;1.85;;;;;;;26.62;64.79;99439.81;5229058;28;20090;-80
2021/05/10 07:40:56;;;;;;;4.65;1.80;;;;;;;27.50;62.37;99445.81;5246706;28;20072;-80
2021/05/10 07:43:26;;;;;;;2.33;1.50;;;;;;;27.34;63.28;99446.03;5224543;28;20044;-80
2021/05/10 07:45:56;;;;;;;2.83;1.45;;;;;;;28.14;60.86;99444.81;5229619;28;20024;-80
2021/05/10 07:48:27;;;;;;;3.87;1.60;;;;;;;28.21;60.81;99447.56;5229971;28;20044;-80
2021/05/10 07:50:57;;;;;;;5.03;1.60;;;;;;;28.74;58.86;99463.97;5280600;22;20345;-80
2021/05/10 07:53:29;;;;;;;3.08;1.50;;;;;;;29.24;58.36;99459.09;5229827;28;20758;-80
2021/05/10 07:55:59;;;;;;;2.70;1.30;;;;;;;29.11;57.34;99452.84;5222934;28;20067;-80
2021/05/10 07:58:30;;;;;;;3.05;1.75;;;;;;;29.65;56.38;99451.00;5225199;28;20110;-80
2021/05/10 08:01:04;;;;;;;3.85;1.40;;;;;;;30.46;55.17;99456.94;5225570;28;20044;-80
2021/05/10 08:03:34;;;;;;;5.45;1.30;;;;;;;28.78;59.50;99494.81;5224494;28;20021;-80
2021/05/10 08:06:04;;;;;;;4.30;1.42;;;;;;;27.94;59.77;99577.34;5225102;28;20028;-80
2021/05/10 08:08:36;;;;;;;5.60;2.15;;;;;;;26.42;61.70;99602.13;5225144;28;20021;-80
2021/05/10 08:11:06;;;;;;;5.22;2.45;;;;;;;25.41;64.67;99591.56;5224726;28;20036;-79
2021/05/10 08:13:37;;;;;;;6.32;1.60;;;;;;;27.95;61.61;99561.00;5224581;28;20021;-80
2021/05/10 08:16:07;;;;;;;3.83;1.63;;;;;;;28.38;57.47;99586.97;5225599;28;20028;-80
2021/05/10 08:18:42;;;;;;;5.37;1.73;;;;;;;28.55;57.73;99596.44;5230612;28;20363;-80
2021/05/10 08:21:12;;;;;;;4.03;1.60;;;;;;;27.20;58.69;99605.22;5227875;28;20624;-80
2021/05/10 08:23:42;;;;;;;5.70;1.73;;;;;;;27.00;58.91;99598.69;5228185;28;20037;-80
2021/05/10 08:26:13;;;;;;;5.53;1.47;;;;;;;26.82;60.10;99586.59;5228606;28;20029;-80
2021/05/10 08:28:43;;;;;;;7.43;1.50;;;;;;;28.31;57.53;99582.53;5230343;28;20282;-79
2021/05/10 08:31:13;;;;;;;3.85;1.60;;;;;;;29.71;52.28;99569.59;5229721;28;20029;-79
2021/05/10 08:33:45;;;;;;;5.32;1.50;;;;;;;30.80;48.90;99558.50;5229208;28;20035;-80
2021/05/10 08:36:16;;;;;;;4.18;1.30;;;;;;;29.82;49.93;99570.88;5227735;28;20020;-80
2021/05/10 08:38:48;;;;;;;4.55;1.20;;;;;;;31.84;47.06;99578.09;5227576;28;20036;-79
2021/05/10 08:41:18;;;;;;;3.35;1.20;;;;;;;32.46;46.44;99578.19;5228278;28;20024;-80
2021/05/10 08:43:49;;;;;;;2.13;1.15;;;;;;;31.86;45.01;99579.50;5228459;28;20033;-79
2021/05/10 08:46:22;;;;;;;5.33;1.13;;;;;;;30.92;46.78;99566.59;5223022;28;20032;-79
2021/05/10 08:48:52;;;;;;;4.47;1.10;;;;;;;31.51;47.73;99571.94;5230075;28;20275;-79
2021/05/10 08:51:24;;;;;;;3.13;1.20;;;;;;;30.93;46.87;99576.34;5231812;28;20025;-80
2021/05/10 08:53:54;;;;;;;4.10;1.35;;;;;;;30.27;47.98;99576.44;5228472;28;20276;-79
2021/05/10 08:56:25;;;;;;;5.00;1.10;;;;;;;29.83;49.42;99567.16;5228175;28;20447;-79
2021/05/10 08:58:55;;;;;;;6.78;1.20;;;;;;;30.38;49.85;99562.38;5228629;28;20270;-80
2021/05/10 09:01:45;;;;;;;2.60;1.38;;;;;;;30.64;48.07;99557.06;5229657;28;20031;-79
2021/05/10 09:04:16;;;;;;;3.83;1.08;;;;;;;30.50;47.73;99565.28;5229253;28;20109;-79
2021/05/10 09:06:46;;;;;;;6.07;1.25;;;;;;;29.07;50.12;99570.84;5225810;28;20126;-79
2021/05/10 09:09:17;;;;;;;4.87;1.10;;;;;;;29.49;49.58;99575.28;5229051;28;20025;-79
2021/05/10 09:11:55;;;;;;;6.47;1.13;;;;;;;29.93;48.40;99573.81;5227556;28;20683;-79
2021/05/10 09:14:32;;;;;;;3.95;1.10;;;;;;;29.62;49.25;99576.19;5227710;28;20271;-79
2021/05/10 09:17:02;;;;;;;2.28;1.10;;;;;;;29.07;48.84;99572.72;5227967;28;20275;-79
2021/05/10 09:19:44;;;;;;;3.00;1.25;;;;;;;29.08;48.92;99567.13;5227622;28;20023;-79
2021/05/10 09:22:15;;;;;;;1.65;1.10;;;;;;;29.23;48.93;99564.31;5226899;28;20021;-79
2021/05/10 09:24:48;;;;;;;3.85;1.00;;;;;;;29.82;50.51;99562.78;5227193;28;20359;-79
2021/05/10 09:27:27;;;;;;;2.70;1.20;;;;;;;29.76;49.75;99563.59;5225677;28;20021;-79
2021/05/10 09:30:19;;;;;;;2.42;1.05;;;;;;;29.41;52.64;99562.75;5227358;28;20029;-79
2021/05/10 09:32:52;;;;;;;5.82;1.17;;;;;;;29.21;51.05;99566.41;5226590;28;20029;-79
2021/05/10 09:35:28;;;;;;;5.05;1.20;;;;;;;28.76;52.29;99572.22;5226081;28;20494;-79
2021/05/10 09:38:05;;;;;;;2.78;1.10;;;;;;;29.45;53.15;99568.59;5223502;28;20035;-79
2021/05/10 09:40:53;;;;;;;2.97;1.20;;;;;;;29.71;49.79;99560.69;5226586;28;20091;-78
2021/05/10 09:43:35;;;;;;;3.25;1.00;;;;;;;29.48;49.44;99552.06;5230773;28;20059;-79
2021/05/10 09:46:06;;;;;;;5.32;1.20;;;;;;;29.77;50.41;99559.88;5227729;28;20056;-79
2021/05/10 09:48:39;;;;;;;2.20;1.17;;;;;;;29.99;48.05;99556.84;5227860;28;20025;-79
2021/05/10 09:51:17;;;;;;;2.58;1.25;;;;;;;30.34;48.73;99538.69;5230720;28;20070;-79
2021/05/10 09:53:55;;;;;;;1.60;1.10;;;;;;;30.20;48.76;99537.84;5231508;28;20029;-79
2021/05/10 09:56:32;;;;;;;3.65;1.15;;;;;;;30.19;49.54;99535.34;5226171;28;20032;-78
2021/05/10 09:59:12;;;;;;;2.97;1.10;;;;;;;29.62;51.47;99524.16;5231373;28;20025;-78
2021/05/10 10:01:48;;;;;;;2.88;1.00;;;;;;;29.12;52.08;99532.56;5229067;28;20494;-78
2021/05/10 10:04:19;;;;;;;3.13;1.10;;;;;;;28.98;50.84;99528.97;5232077;28;20425;-78
2021/05/10 10:06:50;;;;;;;3.67;1.15;;;;;;;28.47;50.39;99523.94;5227863;28;20028;-78
2021/05/10 10:09:22;;;;;;;2.28;1.10;;;;;;;28.38;52.83;99519.75;5228531;28;20082;-79
2021/05/10 10:11:53;;;;;;;2.90;1.20;;;;;;;28.06;52.08;99530.13;5232476;28;20059;-77
2021/05/10 10:14:23;;;;;;;2.53;1.02;;;;;;;28.01;52.91;99538.78;5233887;28;20066;-78
2021/05/10 10:16:54;;;;;;;2.83;1.10;;;;;;;27.97;54.71;99542.03;5221089;28;20036;-78
2021/05/10 10:19:24;;;;;;;1.98;1.10;;;;;;;28.13;55.58;99542.63;5228947;28;20787;-77
2021/05/10 10:21:55;;;;;;;3.47;1.17;;;;;;;28.55;54.61;99528.38;5229605;28;20033;-78
2021/05/10 10:24:26;;;;;;;2.60;1.10;;;;;;;29.17;56.04;99532.78;5229977;28;20035;-78
2021/05/10 10:26:59;;;;;;;2.65;1.00;;;;;;;29.33;52.11;99537.84;5226776;28;20134;-78
2021/05/10 10:29:31;;;;;;;3.63;1.00;;;;;;;29.34;54.61;99537.66;5227357;28;20017;-79
2021/05/10 10:32:02;;;;;;;2.55;0.93;;;;;;;29.60;56.64;99529.75;5227242;28;20033;-79
2021/05/10 10:34:36;;;;;;;5.38;1.20;;;;;;;29.13;49.33;99535.06;5224324;28;20024;-79
2021/05/10 10:37:07;;;;;;;4.93;1.25;;;;;;;29.13;51.63;99543.16;5229597;28;20028;-78
2021/05/10 10:39:48;;;;;;;2.80;1.15;;;;;;;28.05;51.14;99537.38;5227103;28;20040;-78
2021/05/10 10:42:27;;;;;;;2.47;1.02;;;;;;;28.40;56.86;99547.28;5231074;28;20051;-78
2021/05/10 10:45:00;;;;;;;3.13;1.23;;;;;;;28.20;52.92;99546.22;5229200;28;20021;-78
2021/05/10 10:47:46;;;;;;;2.53;1.00;;;;;;;28.29;53.05;99553.13;5226697;28;20052;-79
2021/05/10 10:50:19;;;;;;;2.40;1.10;;;;;;;28.31;50.57;99558.34;5228799;28;20455;-79
2021/05/10 10:53:02;;;;;;;4.63;1.40;;;;;;;28.11;52.07;99563.47;5226420;28;20127;-79
2021/05/10 10:55:37;;;;;;;2.92;1.20;;;;;;;28.40;52.12;99557.19;5221263;28;20355;-79
2021/05/10 10:58:20;;;;;;;4.10;1.20;;;;;;;28.69;54.22;99554.34;5224660;28;20029;-79
2021/05/10 11:00:56;;;;;;;5.68;1.27;;;;;;;28.69;54.25;99547.13;5226164;28;20029;-78
2021/05/10 11:03:27;;;;;;;3.20;1.15;;;;;;;28.87;56.94;99544.78;5223903;28;20021;-79
2021/05/10 11:05:59;;;;;;;2.95;1.05;;;;;;;28.78;54.28;99532.50;5224349;28;20048;-79
2021/05/10 11:08:46;;;;;;;3.38;1.23;;;;;;;28.65;52.50;99526.19;5225333;28;20016;-79
2021/05/10 11:11:26;;;;;;;3.15;1.10;;;;;;;28.67;54.34;99521.44;5223592;28;20151;-79
2021/05/10 11:13:59;;;;;;;4.60;0.98;;;;;;;28.82;54.80;99517.63;5266375;28;20016;-79
2021/05/10 11:17:02;;;;;;;1.70;0.90;;;;;;;28.39;53.08;99531.31;5221269;28;20070;-79
2021/05/10 11:19:37;;;;;;;5.07;1.15;;;;;;;28.22;51.84;99543.31;5195551;28;20033;-79
2021/05/10 11:22:30;;;;;;;3.85;1.10;;;;;;;27.86;51.67;99556.78;5224365;28;20029;-79
2021/05/10 11:25:35;;;;;;;3.83;1.00;;;;;;;27.62;52.83;99551.69;5222626;28;20025;-79
2021/05/10 11:28:24;;;;;;;2.35;1.00;;;;;;;27.45;52.61;99550.22;5221887;28;20033;-78
2021/05/10 11:30:57;;;;;;;3.85;1.20;;;;;;;27.72;nan;99563.03;5228043;28;20441;-79
2021/05/10 11:33:53;;;;;;;6.43;1.10;;;;;;;28.04;54.58;99576.03;5225701;28;20025;-79
2021/05/10 11:36:34;;;;;;;6.30;1.17;;;;;;;27.61;54.08;99578.75;5226972;28;20017;-79
2021/05/10 11:39:08;;;;;;;7.85;1.10;;;;;;;27.42;52.04;99595.44;5232887;28;20563;-79
2021/05/10 11:41:43;;;;;;;3.65;1.27;;;;;;;27.45;53.11;99595.88;5228068;28;20035;-80
2021/05/10 11:44:25;;;;;;;3.00;1.00;;;;;;;27.54;52.06;99607.34;5224522;28;20031;-79
2021/05/10 11:46:57;;;;;;;3.08;1.13;;;;;;;27.47;52.84;99614.50;5221789;28;20401;-79
2021/05/10 11:49:35;;;;;;;4.63;1.27;;;;;;;27.66;53.45;99616.63;5223121;28;20029;-80
2021/05/10 11:52:13;;;;;;;6.15;1.00;;;;;;;27.46;54.75;99608.28;5226939;28;20071;-79
2021/05/10 11:54:51;;;;;;;7.30;1.40;;;;;;;27.20;55.18;99607.91;5228537;28;20078;-79
2021/05/10 11:57:28;;;;;;;4.38;1.25;;;;;;;27.29;54.51;99622.06;5228164;28;20024;-78
2021/05/10 12:00:01;;;;;;;4.80;0.90;;;;;;;27.14;54.75;99619.34;5256178;28;20029;-78
2021/05/10 12:02:32;;;;;;;4.72;1.10;;;;;;;27.04;55.05;99618.75;5232536;28;20029;-80
2021/05/10 12:05:08;;;;;;;3.03;1.08;;;;;;;27.07;54.68;99629.13;5231996;28;20040;-80